Time;durP1;ratioP1;P1;durP2;ratioP2;P2;SDS_P1;SDS_P2;PMS_P1;PMS_P2;Temp;Humidity;BMP_temperature;BMP_pressure;BME280_temperature;BME280_humidity;BME280_pressure;Samples;Min_cycle;Max_cycle;Signal;HPM_P1;HPM_P2
2021/07/19 00:01:20;;;;;;;;;;;17.00;99.90;;;;;;5068615;28;19990;-81
2021/07/19 00:03:45;;;;;;;;;;;17.00;99.90;;;;;;5052681;28;19914;-81
2021/07/19 00:06:11;;;;;;;;;;;16.90;99.90;;;;;;5068450;28;19913;-81
2021/07/19 00:08:37;;;;;;;;;;;16.90;99.90;;;;;;5055177;28;19917;-82
2021/07/19 00:11:03;;;;;;;;;;;16.90;99.90;;;;;;5054755;28;19996;-82
2021/07/19 00:13:29;;;;;;;;;;;16.90;99.90;;;;;;5052146;28;19916;-80
2021/07/19 00:15:54;;;;;;;;;;;16.90;99.90;;;;;;5053796;28;20219;-82
2021/07/19 00:18:20;;;;;;;;;;;16.90;99.90;;;;;;5052170;28;20367;-82
2021/07/19 00:20:46;;;;;;;;;;;16.90;99.90;;;;;;5051932;28;19916;-82
2021/07/19 00:23:11;;;;;;;;;;;16.80;99.90;;;;;;5053473;28;20197;-82
2021/07/19 00:25:37;;;;;;;;;;;16.90;99.90;;;;;;5054969;28;19916;-81
2021/07/19 00:28:03;;;;;;;;;;;16.90;99.90;;;;;;5041007;28;19917;-83
2021/07/19 00:30:29;;;;;;;;;;;16.90;99.90;;;;;;5054265;28;19913;-81
2021/07/19 00:32:54;;;;;;;;;;;16.90;99.90;;;;;;5054725;28;20318;-81
2021/07/19 00:35:20;;;;;;;;;;;16.80;99.90;;;;;;5047061;28;19912;-80
2021/07/19 00:37:45;;;;;;;;;;;16.70;99.90;;;;;;5056677;28;19990;-81
2021/07/19 00:40:11;;;;;;;;;;;16.70;99.90;;;;;;5053397;28;20039;-81
2021/07/19 00:42:40;;;;;;;;;;;16.60;99.90;;;;;;5054097;28;19917;-82
2021/07/19 00:45:09;;;;;;;;;;;16.60;99.90;;;;;;5052643;28;19932;-81
2021/07/19 00:47:35;;;;;;;;;;;16.50;99.90;;;;;;5048545;28;19999;-81
2021/07/19 00:50:00;;;;;;;;;;;16.50;99.90;;;;;;5048953;28;19992;-81
2021/07/19 00:52:26;;;;;;;;;;;16.60;99.90;;;;;;5051372;28;19928;-80
2021/07/19 00:54:52;;;;;;;;;;;16.70;99.90;;;;;;5054318;28;19913;-81
2021/07/19 00:57:18;;;;;;;;;;;16.50;99.90;;;;;;5052716;28;19913;-80
2021/07/19 00:59:44;;;;;;;;;;;16.40;99.90;;;;;;5055020;28;19924;-81
2021/07/19 01:02:10;;;;;;;;;;;16.40;99.90;;;;;;5051570;28;19916;-80
2021/07/19 01:04:35;;;;;;;;;;;16.40;99.90;;;;;;5045856;28;19920;-80
2021/07/19 01:07:02;;;;;;;;;;;16.40;99.90;;;;;;5051188;28;19920;-79
2021/07/19 01:09:28;;;;;;;;;;;16.30;99.90;;;;;;5051388;28;19920;-80
2021/07/19 01:11:55;;;;;;;;;;;16.20;99.90;;;;;;5052103;28;19925;-81
2021/07/19 01:14:20;;;;;;;;;;;16.10;99.90;;;;;;5050420;28;20381;-81
2021/07/19 01:16:47;;;;;;;;;;;16.10;99.90;;;;;;5052014;28;19991;-81
2021/07/19 01:19:13;;;;;;;;;;;16.10;99.90;;;;;;5048079;28;19913;-82
2021/07/19 01:21:47;;;;;;;;;;;16.10;99.90;;;;;;5050605;28;20196;-80
2021/07/19 01:24:24;;;;;;;;;;;16.10;99.90;;;;;;5050748;28;19916;-80
2021/07/19 01:26:56;;;;;;;;;;;16.30;99.90;;;;;;5050732;28;20142;-80
2021/07/19 01:29:22;;;;;;;;;;;16.30;99.90;;;;;;5051104;28;20311;-80
2021/07/19 01:31:48;;;;;;;;;;;16.10;99.90;;;;;;5050326;28;19920;-80
2021/07/19 01:34:18;;;;;;;;;;;15.90;99.90;;;;;;5049475;28;20055;-81
2021/07/19 01:36:48;;;;;;;;;;;15.80;99.90;;;;;;5053637;28;19913;-80
2021/07/19 01:39:14;;;;;;;;;;;15.90;99.90;;;;;;5049532;28;19917;-82
2021/07/19 01:41:40;;;;;;;;;;;15.90;99.90;;;;;;5049834;28;19913;-81
2021/07/19 01:44:06;;;;;;;;;;;15.90;99.90;;;;;;5050126;28;19956;-81
2021/07/19 01:46:33;;;;;;;;;;;15.90;99.90;;;;;;5052315;28;19927;-80
2021/07/19 01:48:58;;;;;;;;;;;15.80;99.90;;;;;;5051473;28;19920;-82
2021/07/19 01:51:25;;;;;;;;;;;15.80;99.90;;;;;;5048299;28;20007;-81
2021/07/19 01:53:51;;;;;;;;;;;15.80;99.90;;;;;;5048389;28;19923;-81
2021/07/19 01:56:17;;;;;;;;;;;15.80;99.90;;;;;;5047993;28;19913;-81
2021/07/19 01:58:43;;;;;;;;;;;15.90;99.90;;;;;;5046895;28;20223;-81
2021/07/19 02:01:11;;;;;;;;;;;15.90;99.90;;;;;;5051495;28;20273;-81
2021/07/19 02:03:37;;;;;;;;;;;15.90;99.90;;;;;;5050773;28;19959;-82
2021/07/19 02:06:04;;;;;;;;;;;15.70;99.90;;;;;;5051000;28;19921;-80
2021/07/19 02:08:29;;;;;;;;;;;15.70;99.90;;;;;;5051330;28;20224;-80
2021/07/19 02:10:55;;;;;;;;;;;15.70;99.90;;;;;;5049736;28;19913;-81
2021/07/19 02:13:22;;;;;;;;;;;15.70;99.90;;;;;;5049568;28;19917;-81
2021/07/19 02:15:51;;;;;;;;;;;15.60;99.90;;;;;;5049966;28;19920;-81
2021/07/19 02:18:17;;;;;;;;;;;15.60;99.90;;;;;;5049452;28;19923;-82
2021/07/19 02:20:43;;;;;;;;;;;15.70;99.90;;;;;;5053818;28;19921;-81
2021/07/19 02:23:09;;;;;;;;;;;15.60;99.90;;;;;;5054556;28;19917;-81
2021/07/19 02:25:35;;;;;;;;;;;15.60;99.90;;;;;;5056368;28;20019;-82
2021/07/19 02:28:01;;;;;;;;;;;15.60;99.90;;;;;;5054688;28;20072;-82
2021/07/19 02:30:28;;;;;;;;;;;15.60;99.90;;;;;;5054953;28;20219;-82
2021/07/19 02:32:55;;;;;;;;;;;15.50;99.90;;;;;;5052173;28;19951;-81
2021/07/19 02:35:22;;;;;;;;;;;15.50;99.90;;;;;;5054698;28;19916;-81
2021/07/19 02:37:48;;;;;;;;;;;15.40;99.90;;;;;;5052271;28;19913;-81
2021/07/19 02:40:16;;;;;;;;;;;15.50;99.90;;;;;;5052333;28;19924;-81
2021/07/19 02:42:47;;;;;;;;;;;15.60;99.90;;;;;;5052973;28;19922;-81
2021/07/19 02:45:14;;;;;;;;;;;15.70;99.90;;;;;;5052001;28;19919;-80
2021/07/19 02:47:44;;;;;;;;;;;15.70;99.90;;;;;;5052887;28;19970;-81
2021/07/19 02:50:10;;;;;;;;;;;15.60;99.90;;;;;;5054473;28;19958;-81
2021/07/19 02:52:37;;;;;;;;;;;15.50;99.90;;;;;;5053163;28;20277;-81
2021/07/19 02:55:03;;;;;;;;;;;15.40;99.90;;;;;;5055419;28;19921;-81
2021/07/19 02:57:29;;;;;;;;;;;15.40;99.90;;;;;;5051776;28;19948;-81
2021/07/19 02:59:56;;;;;;;;;;;15.50;99.90;;;;;;5052984;28;19971;-81
2021/07/19 03:02:24;;;;;;;;;;;15.50;99.90;;;;;;5056107;28;19916;-80
2021/07/19 03:04:53;;;;;;;;;;;15.60;99.90;;;;;;5050425;28;20003;-80
2021/07/19 03:07:20;;;;;;;;;;;15.50;99.90;;;;;;5056214;28;19917;-81
2021/07/19 03:09:48;;;;;;;;;;;15.40;99.90;;;;;;5056602;28;20002;-81
2021/07/19 03:12:16;;;;;;;;;;;15.40;99.90;;;;;;5055387;28;19909;-82
2021/07/19 03:14:42;;;;;;;;;;;15.40;99.90;;;;;;5055318;28;19916;-81
2021/07/19 03:17:08;;;;;;;;;;;15.50;99.90;;;;;;5054496;28;19917;-82
2021/07/19 03:19:35;;;;;;;;;;;15.40;99.90;;;;;;5051778;28;19917;-82
2021/07/19 03:22:01;;;;;;;;;;;15.30;99.90;;;;;;5046328;28;19913;-82
2021/07/19 03:24:28;;;;;;;;;;;15.20;99.90;;;;;;5055379;28;19917;-81
2021/07/19 03:26:54;;;;;;;;;;;15.20;99.90;;;;;;5055090;28;19920;-80
2021/07/19 03:29:20;;;;;;;;;;;15.20;99.90;;;;;;5049801;28;19924;-80
2021/07/19 03:31:47;;;;;;;;;;;15.20;99.90;;;;;;5051086;28;20511;-81
2021/07/19 03:34:13;;;;;;;;;;;15.20;99.90;;;;;;5043960;28;19913;-82
2021/07/19 03:36:39;;;;;;;;;;;15.20;99.90;;;;;;5046337;28;20009;-81
2021/07/19 03:39:06;;;;;;;;;;;15.20;99.90;;;;;;5055520;28;19909;-82
2021/07/19 03:41:33;;;;;;;;;;;15.10;99.90;;;;;;5060075;28;19912;-81
2021/07/19 03:43:59;;;;;;;;;;;15.10;99.90;;;;;;5053640;28;19913;-81
2021/07/19 03:46:25;;;;;;;;;;;15.20;99.90;;;;;;5053503;28;19913;-82
2021/07/19 03:48:51;;;;;;;;;;;15.20;99.90;;;;;;5054435;28;19994;-82
2021/07/19 03:51:17;;;;;;;;;;;15.20;99.90;;;;;;5050022;28;19952;-81
2021/07/19 03:53:43;;;;;;;;;;;15.20;99.90;;;;;;5039510;28;19908;-81
2021/07/19 03:56:09;;;;;;;;;;;15.10;99.90;;;;;;5050503;28;19917;-80
2021/07/19 03:58:36;;;;;;;;;;;15.00;99.90;;;;;;5050492;28;19908;-80
2021/07/19 04:01:02;;;;;;;;;;;14.90;99.90;;;;;;5051255;28;19920;-82
2021/07/19 04:03:32;;;;;;;;;;;14.80;99.90;;;;;;5069694;28;19913;-82
2021/07/19 04:06:00;;;;;;;;;;;14.90;99.90;;;;;;5049022;28;19986;-83
2021/07/19 04:08:28;;;;;;;;;;;15.10;99.90;;;;;;5053363;28;19920;-82
2021/07/19 04:10:55;;;;;;;;;;;15.20;99.90;;;;;;5049328;28;20223;-81
2021/07/19 04:13:20;;;;;;;;;;;15.10;99.90;;;;;;5042744;28;19974;-81
2021/07/19 04:15:48;;;;;;;;;;;15.00;99.90;;;;;;5053988;28;19924;-83
2021/07/19 04:18:13;;;;;;;;;;;15.00;99.90;;;;;;5051228;28;19971;-81
2021/07/19 04:20:42;;;;;;;;;;;15.10;99.90;;;;;;5053982;28;19921;-83
2021/07/19 04:23:11;;;;;;;;;;;15.10;99.90;;;;;;5049700;28;19919;-82
2021/07/19 04:25:38;;;;;;;;;;;15.10;99.90;;;;;;5049779;28;19974;-83
2021/07/19 04:28:03;;;;;;;;;;;15.10;99.90;;;;;;5050798;28;19921;-82
2021/07/19 04:30:36;;;;;;;;;;;15.10;99.90;;;;;;5048308;28;19917;-82
2021/07/19 04:33:02;;;;;;;;;;;15.20;99.90;;;;;;5051863;28;19923;-83
2021/07/19 04:35:28;;;;;;;;;;;15.20;99.90;;;;;;5051806;28;19925;-82
2021/07/19 04:37:53;;;;;;;;;;;15.30;99.90;;;;;;5050491;28;19935;-82
2021/07/19 04:40:20;;;;;;;;;;;15.30;99.90;;;;;;5052620;28;20353;-82
2021/07/19 04:42:46;;;;;;;;;;;15.40;99.90;;;;;;5052905;28;19967;-83
2021/07/19 04:45:12;;;;;;;;;;;15.40;99.90;;;;;;5050265;28;19913;-82
2021/07/19 04:47:38;;;;;;;;;;;15.40;99.90;;;;;;5050933;28;19913;-82
2021/07/19 04:50:03;;;;;;;;;;;15.40;99.90;;;;;;5055349;28;19920;-81
2021/07/19 04:52:29;;;;;;;;;;;15.40;99.90;;;;;;5054343;28;19916;-82
2021/07/19 04:54:55;;;;;;;;;;;15.50;99.90;;;;;;5050136;28;19913;-82
2021/07/19 04:57:23;;;;;;;;;;;15.50;99.90;;;;;;5053813;28;20050;-82
2021/07/19 04:59:50;;;;;;;;;;;15.60;99.90;;;;;;5052247;28;19931;-82
2021/07/19 05:02:19;;;;;;;;;;;15.70;99.90;;;;;;5048064;28;19939;-82
2021/07/19 05:04:47;;;;;;;;;;;15.80;99.90;;;;;;5051520;28;19996;-82
2021/07/19 05:07:15;;;;;;;;;;;15.90;99.90;;;;;;5040126;28;20307;-81
2021/07/19 05:09:41;;;;;;;;;;;16.00;99.90;;;;;;5053449;28;19919;-81
2021/07/19 05:12:12;;;;;;;;;;;16.00;99.90;;;;;;5046581;28;20200;-81
2021/07/19 05:14:39;;;;;;;;;;;16.00;99.90;;;;;;5049941;28;20330;-83
2021/07/19 05:17:05;;;;;;;;;;;16.00;99.90;;;;;;5046820;28;19913;-82
2021/07/19 05:19:30;;;;;;;;;;;16.20;99.90;;;;;;5049779;28;19959;-82
2021/07/19 05:21:56;;;;;;;;;;;16.30;99.90;;;;;;5052641;28;20260;-82
2021/07/19 05:24:31;;;;;;;;;;;16.30;99.90;;;;;;5053202;28;19970;-82
2021/07/19 05:26:56;;;;;;;;;;;16.50;99.90;;;;;;5053943;28;20277;-82
2021/07/19 05:29:22;;;;;;;;;;;16.60;99.90;;;;;;5054805;28;19917;-82
2021/07/19 05:31:47;;;;;;;;;;;16.60;99.90;;;;;;5050549;28;20015;-82
2021/07/19 05:34:13;;;;;;;;;;;16.50;99.90;;;;;;5052704;28;19921;-83
2021/07/19 05:36:38;;;;;;;;;;;16.60;99.90;;;;;;5049472;28;19928;-82
2021/07/19 05:39:04;;;;;;;;;;;16.60;99.90;;;;;;5051393;28;19913;-83
2021/07/19 05:41:30;;;;;;;;;;;16.70;99.90;;;;;;5049342;28;20024;-82
2021/07/19 05:43:55;;;;;;;;;;;16.70;99.90;;;;;;5047829;28;19913;-82
2021/07/19 05:46:21;;;;;;;;;;;16.70;99.90;;;;;;5052302;28;19920;-83
2021/07/19 05:48:46;;;;;;;;;;;16.80;99.90;;;;;;5050965;28;20015;-83
2021/07/19 05:51:12;;;;;;;;;;;16.90;99.90;;;;;;5050191;28;19917;-83
2021/07/19 05:53:37;;;;;;;;;;;17.00;99.90;;;;;;5055815;28;19974;-82
2021/07/19 05:56:03;;;;;;;;;;;17.10;99.90;;;;;;5057090;28;20331;-83
2021/07/19 05:58:29;;;;;;;;;;;17.20;99.90;;;;;;5053709;28;19950;-84
2021/07/19 06:00:54;;;;;;;;;;;17.30;99.90;;;;;;5057706;28;20337;-83
2021/07/19 06:03:22;;;;;;;;;;;17.40;99.90;;;;;;5052700;28;20278;-87
2021/07/19 06:05:48;;;;;;;;;;;17.50;99.90;;;;;;5051272;28;20224;-84
2021/07/19 06:08:13;;;;;;;;;;;17.60;99.90;;;;;;5053731;28;19917;-86
2021/07/19 06:10:39;;;;;;;;;;;17.70;99.90;;;;;;5055589;28;19913;-83
2021/07/19 06:13:04;;;;;;;;;;;17.80;99.90;;;;;;5056675;28;20326;-84
2021/07/19 06:15:30;;;;;;;;;;;17.80;99.90;;;;;;5053507;28;20011;-85
2021/07/19 06:17:56;;;;;;;;;;;17.90;99.90;;;;;;5055768;28;19913;-84
2021/07/19 06:20:28;;;;;;;;;;;17.90;99.90;;;;;;5053188;28;19928;-82
2021/07/19 06:22:54;;;;;;;;;;;17.90;99.90;;;;;;5052478;28;20022;-83
2021/07/19 06:25:20;;;;;;;;;;;17.90;99.90;;;;;;5053003;28;20300;-82
2021/07/19 06:27:45;;;;;;;;;;;17.90;99.90;;;;;;5042016;28;19963;-83
2021/07/19 06:30:12;;;;;;;;;;;17.90;99.90;;;;;;5049331;28;20206;-82
2021/07/19 06:32:38;;;;;;;;;;;18.00;99.90;;;;;;5048722;28;19909;-82
2021/07/19 06:35:04;;;;;;;;;;;18.00;99.90;;;;;;5049120;28;20003;-80
2021/07/19 06:37:30;;;;;;;;;;;18.00;99.90;;;;;;5053202;28;19909;-82
2021/07/19 06:39:55;;;;;;;;;;;18.10;99.90;;;;;;5051804;28;19959;-83
2021/07/19 06:42:23;;;;;;;;;;;18.10;99.90;;;;;;5056601;28;19909;-84
2021/07/19 06:44:52;;;;;;;;;;;18.10;99.90;;;;;;5052512;28;20270;-81
2021/07/19 06:47:18;;;;;;;;;;;18.10;99.90;;;;;;5053011;28;19917;-82
2021/07/19 06:49:44;;;;;;;;;;;18.20;99.90;;;;;;5050455;28;20365;-81
2021/07/19 06:52:09;;;;;;;;;;;18.40;99.90;;;;;;5054449;28;19908;-81
2021/07/19 06:54:35;;;;;;;;;;;18.50;99.90;;;;;;5051596;28;19959;-81
2021/07/19 06:57:01;;;;;;;;;;;18.60;99.90;;;;;;5053231;28;19920;-81
2021/07/19 06:59:26;;;;;;;;;;;18.70;99.90;;;;;;5053000;28;20331;-81
2021/07/19 07:01:52;;;;;;;;;;;18.70;99.90;;;;;;5051535;28;19924;-81
2021/07/19 07:04:17;;;;;;;;;;;18.80;99.90;;;;;;5043975;28;19920;-81
2021/07/19 07:06:43;;;;;;;;;;;18.90;99.90;;;;;;5052791;28;20351;-80
2021/07/19 07:09:08;;;;;;;;;;;19.00;99.90;;;;;;5042875;28;19924;-82
2021/07/19 07:11:34;;;;;;;;;;;19.00;99.90;;;;;;5049548;28;19979;-80
2021/07/19 07:14:00;;;;;;;;;;;19.10;99.90;;;;;;5049863;28;20219;-82
2021/07/19 07:16:25;;;;;;;;;;;19.10;99.90;;;;;;5050371;28;19968;-84
2021/07/19 07:18:51;;;;;;;;;;;19.00;99.90;;;;;;5047849;28;20316;-82
2021/07/19 07:21:16;;;;;;;;;;;18.90;99.90;;;;;;5050977;28;20333;-80
2021/07/19 07:23:42;;;;;;;;;;;18.90;99.90;;;;;;5049851;28;19924;-81
2021/07/19 07:26:08;;;;;;;;;;;18.90;99.90;;;;;;5045155;28;20006;-80
2021/07/19 07:28:33;;;;;;;;;;;18.90;99.90;;;;;;5043103;28;20224;-81
2021/07/19 07:30:59;;;;;;;;;;;19.00;99.90;;;;;;5048982;28;20228;-81
2021/07/19 07:33:25;;;;;;;;;;;19.00;99.90;;;;;;5047890;28;19916;-83
2021/07/19 07:35:51;;;;;;;;;;;19.10;99.90;;;;;;5043496;28;20312;-81
2021/07/19 07:38:17;;;;;;;;;;;19.20;99.90;;;;;;5043696;28;19920;-82
2021/07/19 07:40:42;;;;;;;;;;;19.20;99.90;;;;;;5046073;28;19970;-81
2021/07/19 07:43:08;;;;;;;;;;;19.10;99.90;;;;;;5045505;28;20334;-82
2021/07/19 07:45:34;;;;;;;;;;;19.00;99.90;;;;;;5035655;28;20001;-81
2021/07/19 07:47:59;;;;;;;;;;;18.90;99.90;;;;;;5048357;28;19974;-80
2021/07/19 07:50:25;;;;;;;;;;;18.80;99.90;;;;;;5044288;28;19970;-84
2021/07/19 07:52:51;;;;;;;;;;;18.80;99.90;;;;;;5042678;28;19917;-82
2021/07/19 07:55:16;;;;;;;;;;;18.90;99.90;;;;;;5040804;28;19917;-80
2021/07/19 07:57:42;;;;;;;;;;;18.90;99.90;;;;;;5045251;28;20335;-83
2021/07/19 08:00:09;;;;;;;;;;;19.00;99.90;;;;;;5041861;28;19921;-82
2021/07/19 08:02:35;;;;;;;;;;;19.00;99.90;;;;;;5046283;28;19959;-83
2021/07/19 08:05:00;;;;;;;;;;;19.10;99.90;;;;;;5044402;28;19944;-82
2021/07/19 08:07:26;;;;;;;;;;;19.10;99.90;;;;;;5045695;28;19916;-81
2021/07/19 08:09:52;;;;;;;;;;;19.10;99.90;;;;;;5044415;28;19923;-81
2021/07/19 08:12:17;;;;;;;;;;;19.10;99.90;;;;;;5047128;28;19913;-81
2021/07/19 08:14:43;;;;;;;;;;;19.20;99.90;;;;;;5044993;28;19986;-81
2021/07/19 08:17:08;;;;;;;;;;;19.10;99.90;;;;;;5049440;28;19917;-83
2021/07/19 08:19:34;;;;;;;;;;;19.10;99.90;;;;;;5050463;28;20009;-80
2021/07/19 08:22:00;;;;;;;;;;;19.00;99.90;;;;;;5046497;28;19921;-82
2021/07/19 08:24:25;;;;;;;;;;;19.00;99.90;;;;;;5052180;28;19916;-82
2021/07/19 08:26:51;;;;;;;;;;;18.90;99.90;;;;;;5050528;28;19912;-82
2021/07/19 08:29:17;;;;;;;;;;;18.90;99.90;;;;;;5039341;28;20008;-82
2021/07/19 08:31:45;;;;;;;;;;;18.90;99.90;;;;;;5050877;28;20318;-80
2021/07/19 08:34:11;;;;;;;;;;;19.00;99.90;;;;;;5051217;28;20225;-79
2021/07/19 08:36:36;;;;;;;;;;;19.10;99.90;;;;;;5051335;28;19920;-82
2021/07/19 08:39:03;;;;;;;;;;;19.10;99.90;;;;;;5054101;28;19916;-80
2021/07/19 08:41:29;;;;;;;;;;;19.30;99.90;;;;;;5052273;28;19923;-82
2021/07/19 08:43:56;;;;;;;;;;;19.60;99.90;;;;;;5052743;28;19913;-80
2021/07/19 08:46:22;;;;;;;;;;;19.90;99.90;;;;;;5051490;28;19920;-82
2021/07/19 08:48:52;;;;;;;;;;;20.10;99.90;;;;;;5048385;28;19917;-81
2021/07/19 08:51:18;;;;;;;;;;;20.10;99.90;;;;;;5045939;28;19913;-78
2021/07/19 08:53:43;;;;;;;;;;;20.00;99.90;;;;;;5045157;28;19963;-80
2021/07/19 08:56:09;;;;;;;;;;;19.80;99.90;;;;;;5046764;28;19948;-80
2021/07/19 08:58:35;;;;;;;;;;;19.80;99.90;;;;;;5046063;28;19921;-81
2021/07/19 09:01:02;;;;;;;;;;;19.70;99.90;;;;;;5045981;28;20280;-78
2021/07/19 09:03:28;;;;;;;;;;;19.80;99.90;;;;;;5044442;28;19917;-81
2021/07/19 09:05:54;;;;;;;;;;;19.70;99.90;;;;;;5043584;28;19971;-78
2021/07/19 09:08:19;;;;;;;;;;;19.70;99.90;;;;;;5043892;28;19928;-81
2021/07/19 09:10:45;;;;;;;;;;;19.80;99.90;;;;;;5049709;28;19913;-81
2021/07/19 09:13:17;;;;;;;;;;;19.90;99.90;;;;;;5050600;28;20304;-82
2021/07/19 09:15:43;;;;;;;;;;;20.00;99.90;;;;;;5049791;28;19924;-81
2021/07/19 09:18:09;;;;;;;;;;;20.20;99.90;;;;;;5046220;28;19946;-79
2021/07/19 09:20:36;;;;;;;;;;;20.30;99.90;;;;;;5050639;28;19952;-80
2021/07/19 09:23:02;;;;;;;;;;;20.50;99.90;;;;;;5050370;28;19928;-81
2021/07/19 09:25:27;;;;;;;;;;;20.60;99.90;;;;;;5051824;28;19916;-81
2021/07/19 09:27:57;;;;;;;;;;;20.60;99.90;;;;;;5050199;28;20335;-81
2021/07/19 09:30:26;;;;;;;;;;;20.70;99.90;;;;;;5048953;28;20220;-82
2021/07/19 09:32:55;;;;;;;;;;;20.70;99.90;;;;;;5051479;28;19913;-79
2021/07/19 09:35:21;;;;;;;;;;;20.60;99.90;;;;;;5065027;28;20012;-81
2021/07/19 09:37:46;;;;;;;;;;;20.70;99.90;;;;;;5050674;28;20046;-83
2021/07/19 09:40:13;;;;;;;;;;;20.80;99.90;;;;;;5051880;28;19921;-81
2021/07/19 09:42:45;;;;;;;;;;;20.80;99.90;;;;;;5050023;28;19921;-81
2021/07/19 09:45:21;;;;;;;;;;;20.80;99.90;;;;;;5050845;28;19913;-77
2021/07/19 09:47:47;;;;;;;;;;;20.70;99.90;;;;;;5051932;28;19924;-80
2021/07/19 09:50:14;;;;;;;;;;;20.50;99.90;;;;;;5052363;28;19917;-78
2021/07/19 09:52:43;;;;;;;;;;;20.50;99.90;;;;;;5057056;28;19913;-81
2021/07/19 09:55:24;;;;;;;;;;;20.60;99.90;;;;;;5048787;28;19917;-80
2021/07/19 09:57:56;;;;;;;;;;;20.60;99.90;;;;;;5050184;28;19963;-79
2021/07/19 10:00:22;;;;;;;;;;;20.80;99.90;;;;;;5058603;28;19928;-81
2021/07/19 10:02:48;;;;;;;;;;;21.00;99.90;;;;;;5049270;28;20298;-81
2021/07/19 10:05:25;;;;;;;;;;;21.10;99.90;;;;;;5051551;28;19917;-81
2021/07/19 10:07:51;;;;;;;;;;;21.00;99.90;;;;;;5049759;28;19925;-79
2021/07/19 10:10:16;;;;;;;;;;;20.90;99.90;;;;;;5050256;28;19924;-79
2021/07/19 10:12:42;;;;;;;;;;;20.90;99.90;;;;;;5051859;28;19913;-82
2021/07/19 10:15:11;;;;;;;;;;;20.90;99.90;;;;;;5053130;28;19917;-82
2021/07/19 10:17:36;;;;;;;;;;;20.90;99.90;;;;;;5051657;28;19916;-82
2021/07/19 10:20:03;;;;;;;;;;;21.00;99.90;;;;;;5050810;28;19923;-82
2021/07/19 10:22:29;;;;;;;;;;;20.90;99.90;;;;;;5051088;28;20323;-81
2021/07/19 10:24:54;;;;;;;;;;;20.90;99.90;;;;;;5054239;28;19913;-81
2021/07/19 10:27:21;;;;;;;;;;;20.90;99.90;;;;;;5053646;28;19956;-81
2021/07/19 10:29:48;;;;;;;;;;;21.00;99.90;;;;;;5052466;28;19920;-79
2021/07/19 10:32:22;;;;;;;;;;;21.10;99.90;;;;;;5054011;28;19916;-82
2021/07/19 10:34:49;;;;;;;;;;;20.90;99.90;;;;;;5051144;28;19960;-81
2021/07/19 10:37:20;;;;;;;;;;;20.90;99.90;;;;;;5050290;28;19913;-82
2021/07/19 10:39:50;;;;;;;;;;;20.70;99.90;;;;;;5048836;28;19953;-81
2021/07/19 10:42:15;;;;;;;;;;;20.70;99.90;;;;;;5058084;28;19912;-81
2021/07/19 10:44:43;;;;;;;;;;;20.60;99.90;;;;;;5051095;28;19913;-82
2021/07/19 10:47:29;;;;;;;;;;;20.50;99.90;;;;;;5053848;28;19947;-81
2021/07/19 10:49:55;;;;;;;;;;;20.40;99.90;;;;;;5046266;28;19921;-81
2021/07/19 10:52:28;;;;;;;;;;;20.50;99.90;;;;;;5052553;28;20003;-81
2021/07/19 10:54:54;;;;;;;;;;;20.60;99.90;;;;;;5054169;28;20016;-82
2021/07/19 10:57:32;;;;;;;;;;;20.80;99.90;;;;;;5053974;28;20008;-80
2021/07/19 11:00:04;;;;;;;;;;;20.80;99.90;;;;;;5052410;28;19925;-83
2021/07/19 11:02:29;;;;;;;;;;;20.80;99.90;;;;;;5053830;28;19952;-81
2021/07/19 11:04:56;;;;;;;;;;;20.80;99.90;;;;;;5054847;28;19952;-82
2021/07/19 11:07:22;;;;;;;;;;;20.80;99.90;;;;;;5051983;28;19978;-83
2021/07/19 11:09:48;;;;;;;;;;;20.90;99.90;;;;;;5053944;28;19928;-82
2021/07/19 11:12:18;;;;;;;;;;;21.00;99.90;;;;;;5049587;28;19920;-81
2021/07/19 11:14:46;;;;;;;;;;;21.00;99.90;;;;;;5053943;28;19924;-82
2021/07/19 11:17:12;;;;;;;;;;;20.90;99.90;;;;;;5069906;28;20304;-80
2021/07/19 11:19:41;;;;;;;;;;;20.90;99.90;;;;;;5054201;28;19913;-79
2021/07/19 11:22:11;;;;;;;;;;;20.90;99.90;;;;;;5052851;28;19928;-81
2021/07/19 11:24:47;;;;;;;;;;;20.80;99.90;;;;;;5053353;28;19917;-82
2021/07/19 11:27:17;;;;;;;;;;;20.70;99.90;;;;;;5050997;28;19912;-81
2021/07/19 11:29:42;;;;;;;;;;;20.60;99.90;;;;;;5053469;28;19917;-81
2021/07/19 11:32:08;;;;;;;;;;;20.50;99.90;;;;;;5055709;28;19916;-81
2021/07/19 11:34:35;;;;;;;;;;;20.40;99.90;;;;;;5059412;28;19916;-79
2021/07/19 11:37:01;;;;;;;;;;;20.30;99.90;;;;;;5051621;28;19928;-82
2021/07/19 11:39:27;;;;;;;;;;;20.20;99.90;;;;;;5053859;28;20013;-82
2021/07/19 11:42:02;;;;;;;;;;;20.40;99.90;;;;;;5055329;28;20323;-82
2021/07/19 11:44:30;;;;;;;;;;;20.60;99.90;;;;;;5067384;28;19955;-83
2021/07/19 11:46:59;;;;;;;;;;;20.80;99.90;;;;;;5053071;28;19920;-81
2021/07/19 11:49:25;;;;;;;;;;;21.00;99.90;;;;;;5050920;28;19917;-81
2021/07/19 11:51:50;;;;;;;;;;;21.20;99.90;;;;;;5051072;28;20315;-82
2021/07/19 11:54:17;;;;;;;;;;;21.10;99.90;;;;;;5053089;28;19920;-83
2021/07/19 11:56:53;;;;;;;;;;;21.20;99.90;;;;;;5053101;28;20102;-80
2021/07/19 11:59:22;;;;;;;;;;;21.10;99.90;;;;;;5052923;28;20304;-77
2021/07/19 12:01:59;;;;;;;;;;;21.10;99.90;;;;;;5054055;28;19935;-83
2021/07/19 12:04:41;;;;;;;;;;;21.10;99.90;;;;;;5053544;28;19924;-80
2021/07/19 12:07:07;;;;;;;;;;;21.20;99.90;;;;;;5052415;28;20208;-79
2021/07/19 12:09:34;;;;;;;;;;;21.20;99.90;;;;;;5050477;28;19925;-78
2021/07/19 12:12:01;;;;;;;;;;;21.10;99.90;;;;;;5047923;28;20337;-79
2021/07/19 12:14:26;;;;;;;;;;;21.00;99.90;;;;;;5050710;28;19917;-79
2021/07/19 12:16:52;;;;;;;;;;;21.00;99.90;;;;;;5055981;28;19924;-81
2021/07/19 12:19:18;;;;;;;;;;;21.00;99.90;;;;;;5047504;28;19909;-76
2021/07/19 12:21:46;;;;;;;;;;;21.20;99.90;;;;;;5048028;28;19923;-78
2021/07/19 12:24:12;;;;;;;;;;;21.00;99.90;;;;;;5052857;28;20304;-79
2021/07/19 12:26:39;;;;;;;;;;;20.90;99.90;;;;;;5065844;28;20047;-80
2021/07/19 12:29:05;;;;;;;;;;;20.90;99.90;;;;;;5055389;28;19923;-80
2021/07/19 12:31:38;;;;;;;;;;;20.90;99.90;;;;;;5053013;28;19913;-76
2021/07/19 12:34:09;;;;;;;;;;;21.00;99.90;;;;;;5054098;28;19916;-79
2021/07/19 12:36:36;;;;;;;;;;;20.90;99.90;;;;;;5065970;28;19960;-78
2021/07/19 12:39:06;;;;;;;;;;;20.80;99.90;;;;;;5053516;28;19940;-77
2021/07/19 12:41:32;;;;;;;;;;;20.70;99.90;;;;;;5050445;28;20028;-78
2021/07/19 12:43:59;;;;;;;;;;;20.70;99.90;;;;;;5052221;28;19990;-82
2021/07/19 12:46:25;;;;;;;;;;;20.70;99.90;;;;;;5052232;28;19909;-81
2021/07/19 12:48:51;;;;;;;;;;;20.80;99.90;;;;;;5061399;28;19919;-81
2021/07/19 12:51:24;;;;;;;;;;;20.90;99.90;;;;;;5049241;28;19928;-79
2021/07/19 12:53:56;;;;;;;;;;;20.90;99.90;;;;;;5054232;28;19924;-82
2021/07/19 12:56:22;;;;;;;;;;;20.80;99.90;;;;;;5052949;28;19912;-77
2021/07/19 12:58:51;;;;;;;;;;;20.90;99.90;;;;;;5046412;28;20312;-82
2021/07/19 13:01:17;;;;;;;;;;;21.00;99.90;;;;;;5052925;28;19917;-81
2021/07/19 13:03:43;;;;;;;;;;;21.00;99.90;;;;;;5049087;28;19920;-79
2021/07/19 13:06:09;;;;;;;;;;;21.00;99.90;;;;;;5046563;28;19913;-78
2021/07/19 13:08:40;;;;;;;;;;;21.00;99.90;;;;;;5050790;28;20319;-79
2021/07/19 13:11:10;;;;;;;;;;;20.90;99.90;;;;;;5051431;28;19919;-80
2021/07/19 13:13:35;;;;;;;;;;;21.00;99.90;;;;;;5051536;28;20007;-81
2021/07/19 13:16:01;;;;;;;;;;;21.00;99.90;;;;;;5049272;28;20291;-79
2021/07/19 13:18:26;;;;;;;;;;;21.00;99.90;;;;;;5047967;28;19921;-83
2021/07/19 13:21:21;;;;;;;;;;;20.90;99.90;;;;;;5051130;28;20311;-78
2021/07/19 13:23:47;;;;;;;;;;;20.90;99.90;;;;;;5047764;28;20308;-81
2021/07/19 13:26:17;;;;;;;;;;;20.90;99.90;;;;;;5051991;28;19924;-81
2021/07/19 13:28:44;;;;;;;;;;;21.00;99.90;;;;;;5050908;28;20026;-79
2021/07/19 13:31:10;;;;;;;;;;;21.00;99.90;;;;;;5050374;28;20234;-78
2021/07/19 13:33:45;;;;;;;;;;;20.90;99.90;;;;;;5052886;28;19913;-78
2021/07/19 13:36:11;;;;;;;;;;;20.90;99.90;;;;;;5050902;28;19920;-80
2021/07/19 13:38:37;;;;;;;;;;;21.00;99.90;;;;;;5050753;28;19917;-80
2021/07/19 13:41:02;;;;;;;;;;;21.00;99.90;;;;;;5059075;28;19921;-81
2021/07/19 13:43:28;;;;;;;;;;;20.90;99.90;;;;;;5051621;28;19916;-80
2021/07/19 13:45:58;;;;;;;;;;;20.90;99.90;;;;;;5050681;28;19917;-82
2021/07/19 13:48:24;;;;;;;;;;;21.10;99.90;;;;;;5052481;28;19978;-81
2021/07/19 13:50:50;;;;;;;;;;;21.10;99.90;;;;;;5045106;28;19916;-81
2021/07/19 13:53:16;;;;;;;;;;;21.20;99.90;;;;;;5047823;28;19908;-79
2021/07/19 13:55:42;;;;;;;;;;;21.10;99.90;;;;;;5042775;28;19909;-80
2021/07/19 13:58:08;;;;;;;;;;;21.00;99.90;;;;;;5048200;28;19992;-78
2021/07/19 14:00:34;;;;;;;;;;;21.00;99.90;;;;;;5047361;28;20645;-81
2021/07/19 14:02:59;;;;;;;;;;;21.00;99.90;;;;;;5043082;28;19928;-78
2021/07/19 14:05:25;;;;;;;;;;;21.10;99.90;;;;;;5052761;28;19943;-82
2021/07/19 14:07:51;;;;;;;;;;;21.20;99.90;;;;;;5047707;28;20004;-83
2021/07/19 14:10:16;;;;;;;;;;;21.10;99.90;;;;;;5046853;28;20284;-82
2021/07/19 14:12:42;;;;;;;;;;;21.20;99.90;;;;;;5053930;28;19917;-80
2021/07/19 14:15:08;;;;;;;;;;;21.20;99.90;;;;;;5051801;28;20326;-82